sensor_id;sensor_type;location;lat;lon;timestamp;pressure;altitude;pressure_sealevel;temperature;humidity
12077;BME280;12420;42.676;23.262;2023-01-30T00:01:36;94836.56;;;-0.08;100.00
12077;BME280;12420;42.676;23.262;2023-01-30T00:04:03;94828.28;;;-0.05;100.00
12077;BME280;12420;42.676;23.262;2023-01-30T00:06:29;94821.41;;;-0.37;100.00
12077;BME280;12420;42.676;23.262;2023-01-30T00:08:58;94817.06;;;-0.07;100.00
12077;BME280;12420;42.676;23.262;2023-01-30T00:11:24;94820.38;;;-0.03;100.00
12077;BME280;12420;42.676;23.262;2023-01-30T00:13:54;94817.38;;;0.05;100.00
12077;BME280;12420;42.676;23.262;2023-01-30T00:16:21;94808.91;;;-0.16;100.00
12077;BME280;12420;42.676;23.262;2023-01-30T00:18:48;94806.47;;;-0.32;100.00
12077;BME280;12420;42.676;23.262;2023-01-30T00:21:14;94831.00;;;-0.05;100.00
12077;BME280;12420;42.676;23.262;2023-01-30T00:23:42;94814.16;;;-0.31;100.00
12077;BME280;12420;42.676;23.262;2023-01-30T00:26:10;94823.72;;;0.02;100.00
12077;BME280;12420;42.676;23.262;2023-01-30T00:28:38;94809.81;;;-0.10;100.00
12077;BME280;12420;42.676;23.262;2023-01-30T00:31:05;94823.88;;;-0.11;100.00
12077;BME280;12420;42.676;23.262;2023-01-30T00:33:32;94788.50;;;-0.30;100.00
12077;BME280;12420;42.676;23.262;2023-01-30T00:36:00;94824.34;;;-0.04;100.00
12077;BME280;12420;42.676;23.262;2023-01-30T00:38:27;94808.31;;;-0.02;100.00
12077;BME280;12420;42.676;23.262;2023-01-30T00:40:54;94818.59;;;0.04;100.00
12077;BME280;12420;42.676;23.262;2023-01-30T00:43:22;94812.22;;;-0.03;100.00
12077;BME280;12420;42.676;23.262;2023-01-30T00:46:11;94794.72;;;-0.20;100.00
12077;BME280;12420;42.676;23.262;2023-01-30T00:48:57;94782.31;;;-0.30;100.00
12077;BME280;12420;42.676;23.262;2023-01-30T00:51:24;94808.00;;;-0.13;100.00
12077;BME280;12420;42.676;23.262;2023-01-30T00:53:51;94732.72;;;-0.71;100.00
12077;BME280;12420;42.676;23.262;2023-01-30T00:56:18;94780.47;;;-0.33;100.00
12077;BME280;12420;42.676;23.262;2023-01-30T00:58:46;94784.09;;;-0.18;100.00
12077;BME280;12420;42.676;23.262;2023-01-30T01:01:15;94793.03;;;-0.17;100.00
12077;BME280;12420;42.676;23.262;2023-01-30T01:03:42;94798.03;;;-0.25;100.00
12077;BME280;12420;42.676;23.262;2023-01-30T01:06:09;94800.44;;;-0.27;100.00
12077;BME280;12420;42.676;23.262;2023-01-30T01:08:38;94801.03;;;-0.32;100.00
12077;BME280;12420;42.676;23.262;2023-01-30T01:11:05;94791.66;;;-0.40;100.00
12077;BME280;12420;42.676;23.262;2023-01-30T01:13:32;94791.34;;;-0.42;100.00
12077;BME280;12420;42.676;23.262;2023-01-30T01:16:00;94788.03;;;-0.37;100.00
12077;BME280;12420;42.676;23.262;2023-01-30T01:18:27;94763.22;;;-0.49;100.00
12077;BME280;12420;42.676;23.262;2023-01-30T01:20:54;94806.78;;;-0.30;100.00
12077;BME280;12420;42.676;23.262;2023-01-30T01:23:21;94752.94;;;-0.54;100.00
12077;BME280;12420;42.676;23.262;2023-01-30T01:25:48;94779.88;;;-0.37;100.00
12077;BME280;12420;42.676;23.262;2023-01-30T01:28:14;94743.72;;;-0.75;100.00
12077;BME280;12420;42.676;23.262;2023-01-30T01:30:45;94771.81;;;-0.59;100.00
12077;BME280;12420;42.676;23.262;2023-01-30T01:33:14;94746.00;;;-0.73;100.00
12077;BME280;12420;42.676;23.262;2023-01-30T01:35:41;94775.41;;;-0.72;100.00
12077;BME280;12420;42.676;23.262;2023-01-30T01:38:08;94837.69;;;-0.55;100.00
12077;BME280;12420;42.676;23.262;2023-01-30T01:40:34;94770.44;;;-0.64;100.00
12077;BME280;12420;42.676;23.262;2023-01-30T01:43:20;94757.75;;;-0.76;100.00
12077;BME280;12420;42.676;23.262;2023-01-30T01:45:49;94733.28;;;-0.85;100.00
12077;BME280;12420;42.676;23.262;2023-01-30T01:48:24;94733.00;;;-0.78;100.00
12077;BME280;12420;42.676;23.262;2023-01-30T01:50:54;94769.72;;;-0.55;100.00
12077;BME280;12420;42.676;23.262;2023-01-30T01:53:26;94773.50;;;-0.53;100.00
12077;BME280;12420;42.676;23.262;2023-01-30T01:55:56;94772.28;;;-0.61;100.00
12077;BME280;12420;42.676;23.262;2023-01-30T01:58:27;94768.78;;;-0.61;100.00
12077;BME280;12420;42.676;23.262;2023-01-30T02:00:57;94725.09;;;-0.95;100.00
12077;BME280;12420;42.676;23.262;2023-01-30T02:03:28;94755.03;;;-0.76;100.00
12077;BME280;12420;42.676;23.262;2023-01-30T02:05:57;94772.56;;;-0.68;100.00
12077;BME280;12420;42.676;23.262;2023-01-30T02:08:29;94768.97;;;-0.56;100.00
12077;BME280;12420;42.676;23.262;2023-01-30T02:11:00;94764.69;;;-0.75;100.00
12077;BME280;12420;42.676;23.262;2023-01-30T02:13:29;94732.53;;;-0.77;100.00
12077;BME280;12420;42.676;23.262;2023-01-30T02:15:57;94767.91;;;-0.58;100.00
12077;BME280;12420;42.676;23.262;2023-01-30T02:18:27;94772.56;;;-0.59;100.00
12077;BME280;12420;42.676;23.262;2023-01-30T02:21:05;94765.94;;;-0.49;100.00
12077;BME280;12420;42.676;23.262;2023-01-30T02:23:52;94770.16;;;-0.57;100.00
12077;BME280;12420;42.676;23.262;2023-01-30T02:26:38;94782.28;;;-0.39;100.00
12077;BME280;12420;42.676;23.262;2023-01-30T02:29:32;94772.28;;;-0.52;100.00
12077;BME280;12420;42.676;23.262;2023-01-30T02:32:07;94604.53;;;-1.65;100.00
12077;BME280;12420;42.676;23.262;2023-01-30T02:34:44;94769.28;;;-0.45;100.00
12077;BME280;12420;42.676;23.262;2023-01-30T02:37:27;94767.94;;;-0.40;100.00
12077;BME280;12420;42.676;23.262;2023-01-30T02:40:14;94768.41;;;-0.32;100.00
12077;BME280;12420;42.676;23.262;2023-01-30T02:42:48;94803.75;;;-0.23;100.00
12077;BME280;12420;42.676;23.262;2023-01-30T02:45:22;94763.41;;;-0.43;100.00
12077;BME280;12420;42.676;23.262;2023-01-30T02:47:56;94763.41;;;-0.43;100.00
12077;BME280;12420;42.676;23.262;2023-01-30T02:50:29;94701.28;;;-0.72;100.00
12077;BME280;12420;42.676;23.262;2023-01-30T02:52:59;94749.50;;;-0.36;100.00
12077;BME280;12420;42.676;23.262;2023-01-30T02:55:27;94614.97;;;-1.55;100.00
12077;BME280;12420;42.676;23.262;2023-01-30T02:57:54;94757.34;;;-0.47;100.00
12077;BME280;12420;42.676;23.262;2023-01-30T03:00:25;94763.09;;;-0.45;100.00
12077;BME280;12420;42.676;23.262;2023-01-30T03:03:18;94767.31;;;-0.44;100.00
12077;BME280;12420;42.676;23.262;2023-01-30T03:06:14;94767.91;;;-0.58;100.00
12077;BME280;12420;42.676;23.262;2023-01-30T03:08:53;94717.56;;;-0.91;100.00
12077;BME280;12420;42.676;23.262;2023-01-30T03:11:28;94755.66;;;-0.63;100.00
12077;BME280;12420;42.676;23.262;2023-01-30T03:14:05;94713.91;;;-0.97;100.00
12077;BME280;12420;42.676;23.262;2023-01-30T03:16:37;94698.22;;;-1.02;100.00
12077;BME280;12420;42.676;23.262;2023-01-30T03:19:10;94752.03;;;-0.69;100.00
12077;BME280;12420;42.676;23.262;2023-01-30T03:21:40;94716.63;;;-0.97;100.00
12077;BME280;12420;42.676;23.262;2023-01-30T03:24:08;94745.53;;;-0.81;100.00
12077;BME280;12420;42.676;23.262;2023-01-30T03:26:39;94783.97;;;-0.92;100.00
12077;BME280;12420;42.676;23.262;2023-01-30T03:29:08;94732.09;;;-0.75;100.00
12077;BME280;12420;42.676;23.262;2023-01-30T03:31:35;94686.88;;;-1.10;100.00
12077;BME280;12420;42.676;23.262;2023-01-30T03:34:02;94718.47;;;-0.84;100.00
12077;BME280;12420;42.676;23.262;2023-01-30T03:36:30;94647.88;;;-1.43;100.00
12077;BME280;12420;42.676;23.262;2023-01-30T03:38:57;94702.94;;;-0.84;100.00
12077;BME280;12420;42.676;23.262;2023-01-30T03:41:24;94730.00;;;-0.62;100.00
12077;BME280;12420;42.676;23.262;2023-01-30T03:43:51;94728.19;;;-0.65;100.00
12077;BME280;12420;42.676;23.262;2023-01-30T03:46:18;94720.31;;;-0.54;100.00
12077;BME280;12420;42.676;23.262;2023-01-30T03:48:45;94679.41;;;-0.78;100.00
12077;BME280;12420;42.676;23.262;2023-01-30T03:51:12;94718.38;;;-0.62;100.00
12077;BME280;12420;42.676;23.262;2023-01-30T03:53:40;94722.44;;;-0.49;100.00
12077;BME280;12420;42.676;23.262;2023-01-30T03:56:07;94632.41;;;-1.15;100.00
12077;BME280;12420;42.676;23.262;2023-01-30T03:58:34;94681.03;;;-0.90;100.00
12077;BME280;12420;42.676;23.262;2023-01-30T04:01:00;94723.34;;;-0.52;100.00
12077;BME280;12420;42.676;23.262;2023-01-30T04:03:27;94682.09;;;-0.87;100.00
12077;BME280;12420;42.676;23.262;2023-01-30T04:05:54;94713.53;;;-0.49;100.00
12077;BME280;12420;42.676;23.262;2023-01-30T04:08:21;94726.84;;;-0.60;100.00
12077;BME280;12420;42.676;23.262;2023-01-30T04:10:49;94706.09;;;-0.85;100.00
12077;BME280;12420;42.676;23.262;2023-01-30T04:13:16;94710.19;;;-0.72;100.00
12077;BME280;12420;42.676;23.262;2023-01-30T04:15:43;94717.75;;;-0.57;100.00
12077;BME280;12420;42.676;23.262;2023-01-30T04:18:10;94714.88;;;-0.54;100.00
12077;BME280;12420;42.676;23.262;2023-01-30T04:20:37;94705.81;;;-0.69;100.00
12077;BME280;12420;42.676;23.262;2023-01-30T04:23:04;94711.41;;;-0.54;100.00
12077;BME280;12420;42.676;23.262;2023-01-30T04:25:31;94701.88;;;-0.77;100.00
12077;BME280;12420;42.676;23.262;2023-01-30T04:27:59;94695.38;;;-0.80;100.00
12077;BME280;12420;42.676;23.262;2023-01-30T04:30:26;94712.44;;;-0.79;100.00
12077;BME280;12420;42.676;23.262;2023-01-30T04:32:53;94687.44;;;-1.24;100.00
12077;BME280;12420;42.676;23.262;2023-01-30T04:35:19;94739.94;;;-0.86;100.00
12077;BME280;12420;42.676;23.262;2023-01-30T04:37:46;94713.03;;;-0.84;100.00
12077;BME280;12420;42.676;23.262;2023-01-30T04:40:13;94676.31;;;-1.17;100.00
12077;BME280;12420;42.676;23.262;2023-01-30T04:42:40;94687.06;;;-1.04;100.00
12077;BME280;12420;42.676;23.262;2023-01-30T04:45:09;94731.22;;;-0.63;100.00
12077;BME280;12420;42.676;23.262;2023-01-30T04:47:38;94697.53;;;-0.66;100.00
12077;BME280;12420;42.676;23.262;2023-01-30T04:50:05;94663.50;;;-0.98;100.00
12077;BME280;12420;42.676;23.262;2023-01-30T04:52:32;94685.44;;;-0.74;100.00
12077;BME280;12420;42.676;23.262;2023-01-30T04:54:59;94674.41;;;-0.89;100.00
12077;BME280;12420;42.676;23.262;2023-01-30T04:57:26;94693.44;;;-0.70;100.00
12077;BME280;12420;42.676;23.262;2023-01-30T04:59:52;94682.13;;;-0.78;100.00
12077;BME280;12420;42.676;23.262;2023-01-30T05:02:21;94660.78;;;-1.07;100.00
12077;BME280;12420;42.676;23.262;2023-01-30T05:04:48;94683.78;;;-0.80;100.00
12077;BME280;12420;42.676;23.262;2023-01-30T05:07:17;94681.22;;;-0.84;100.00
12077;BME280;12420;42.676;23.262;2023-01-30T05:09:44;94677.28;;;-0.83;100.00
12077;BME280;12420;42.676;23.262;2023-01-30T05:12:10;94680.16;;;-0.77;100.00
12077;BME280;12420;42.676;23.262;2023-01-30T05:14:37;94504.06;;;-1.93;100.00
12077;BME280;12420;42.676;23.262;2023-01-30T05:17:05;94678.50;;;-0.75;100.00
12077;BME280;12420;42.676;23.262;2023-01-30T05:19:34;94635.28;;;-1.00;100.00
12077;BME280;12420;42.676;23.262;2023-01-30T05:22:01;94659.13;;;-0.95;100.00
12077;BME280;12420;42.676;23.262;2023-01-30T05:24:28;94688.16;;;-0.64;100.00
12077;BME280;12420;42.676;23.262;2023-01-30T05:26:54;94639.06;;;-0.98;100.00
12077;BME280;12420;42.676;23.262;2023-01-30T05:29:22;94674.91;;;-1.31;100.00
12077;BME280;12420;42.676;23.262;2023-01-30T05:31:49;94693.41;;;-0.79;100.00
12077;BME280;12420;42.676;23.262;2023-01-30T05:34:19;94697.06;;;-0.64;100.00
12077;BME280;12420;42.676;23.262;2023-01-30T05:36:47;94690.13;;;-0.65;100.00
12077;BME280;12420;42.676;23.262;2023-01-30T05:39:14;94701.16;;;-0.59;100.00
12077;BME280;12420;42.676;23.262;2023-01-30T05:41:41;94692.84;;;-0.65;100.00
12077;BME280;12420;42.676;23.262;2023-01-30T05:44:09;94688.31;;;-0.59;100.00
12077;BME280;12420;42.676;23.262;2023-01-30T05:46:36;94678.03;;;-0.82;100.00
12077;BME280;12420;42.676;23.262;2023-01-30T05:49:03;94692.38;;;-0.73;100.00
12077;BME280;12420;42.676;23.262;2023-01-30T05:51:29;94695.56;;;-0.65;100.00
12077;BME280;12420;42.676;23.262;2023-01-30T05:53:58;94702.63;;;-0.77;100.00
12077;BME280;12420;42.676;23.262;2023-01-30T05:56:27;94697.66;;;-0.69;100.00
12077;BME280;12420;42.676;23.262;2023-01-30T05:58:59;94705.06;;;-0.79;100.00
12077;BME280;12420;42.676;23.262;2023-01-30T06:01:28;94690.72;;;-0.70;100.00
12077;BME280;12420;42.676;23.262;2023-01-30T06:03:57;94706.00;;;-0.45;100.00
12077;BME280;12420;42.676;23.262;2023-01-30T06:06:24;94708.44;;;-0.38;100.00
12077;BME280;12420;42.676;23.262;2023-01-30T06:08:52;94717.03;;;-0.30;100.00
12077;BME280;12420;42.676;23.262;2023-01-30T06:11:24;94704.16;;;-0.20;100.00
12077;BME280;12420;42.676;23.262;2023-01-30T06:13:52;94705.25;;;-0.27;100.00
12077;BME280;12420;42.676;23.262;2023-01-30T06:16:20;94691.34;;;-0.38;100.00
12077;BME280;12420;42.676;23.262;2023-01-30T06:18:56;94675.34;;;-0.46;100.00
12077;BME280;12420;42.676;23.262;2023-01-30T06:21:23;94690.44;;;-0.26;100.00
12077;BME280;12420;42.676;23.262;2023-01-30T06:23:50;94675.94;;;-0.41;100.00
12077;BME280;12420;42.676;23.262;2023-01-30T06:26:16;94685.91;;;-0.29;100.00
12077;BME280;12420;42.676;23.262;2023-01-30T06:28:45;94699.81;;;-0.27;100.00
12077;BME280;12420;42.676;23.262;2023-01-30T06:31:12;94698.44;;;-0.41;100.00
12077;BME280;12420;42.676;23.262;2023-01-30T06:33:40;94672.47;;;-0.60;100.00
12077;BME280;12420;42.676;23.262;2023-01-30T06:36:08;94682.91;;;-0.40;100.00
12077;BME280;12420;42.676;23.262;2023-01-30T06:38:35;94678.66;;;-0.51;100.00
12077;BME280;12420;42.676;23.262;2023-01-30T06:41:02;94660.84;;;-0.61;100.00
12077;BME280;12420;42.676;23.262;2023-01-30T06:43:30;94665.03;;;-0.69;100.00
12077;BME280;12420;42.676;23.262;2023-01-30T06:45:59;94698.84;;;-0.89;100.00
12077;BME280;12420;42.676;23.262;2023-01-30T06:48:26;94668.97;;;-0.89;100.00
12077;BME280;12420;42.676;23.262;2023-01-30T06:50:53;94699.00;;;-0.83;100.00
12077;BME280;12420;42.676;23.262;2023-01-30T06:53:20;94698.88;;;-0.70;100.00
12077;BME280;12420;42.676;23.262;2023-01-30T06:55:49;94720.59;;;-0.89;100.00
12077;BME280;12420;42.676;23.262;2023-01-30T06:58:16;94698.84;;;-0.79;100.00
12077;BME280;12420;42.676;23.262;2023-01-30T07:00:43;94680.41;;;-1.03;100.00
12077;BME280;12420;42.676;23.262;2023-01-30T07:03:12;94696.13;;;-0.89;100.00
12077;BME280;12420;42.676;23.262;2023-01-30T07:05:39;94655.31;;;-1.25;100.00
12077;BME280;12420;42.676;23.262;2023-01-30T07:08:07;94710.91;;;-0.90;100.00
12077;BME280;12420;42.676;23.262;2023-01-30T07:10:34;94671.50;;;-1.03;100.00
12077;BME280;12420;42.676;23.262;2023-01-30T07:13:04;94687.34;;;-1.02;100.00
12077;BME280;12420;42.676;23.262;2023-01-30T07:15:30;94737.09;;;-0.64;100.00
12077;BME280;12420;42.676;23.262;2023-01-30T07:17:57;94688.91;;;-0.82;100.00
12077;BME280;12420;42.676;23.262;2023-01-30T07:20:26;94724.56;;;-0.71;100.00
12077;BME280;12420;42.676;23.262;2023-01-30T07:22:55;94718.66;;;-0.70;100.00
12077;BME280;12420;42.676;23.262;2023-01-30T07:25:23;94698.84;;;-0.98;100.00
12077;BME280;12420;42.676;23.262;2023-01-30T07:27:50;94713.38;;;-0.73;100.00
12077;BME280;12420;42.676;23.262;2023-01-30T07:30:18;94701.88;;;-0.86;100.00
12077;BME280;12420;42.676;23.262;2023-01-30T07:32:48;94710.06;;;-0.68;100.00
12077;BME280;12420;42.676;23.262;2023-01-30T07:35:15;94703.41;;;-0.67;100.00
12077;BME280;12420;42.676;23.262;2023-01-30T07:37:45;94698.25;;;-0.74;100.00
12077;BME280;12420;42.676;23.262;2023-01-30T07:40:13;94730.91;;;-0.47;100.00
12077;BME280;12420;42.676;23.262;2023-01-30T07:42:40;94738.78;;;-0.39;100.00
12077;BME280;12420;42.676;23.262;2023-01-30T07:45:08;94737.56;;;-0.29;100.00
12077;BME280;12420;42.676;23.262;2023-01-30T07:47:36;94741.66;;;-0.25;100.00
12077;BME280;12420;42.676;23.262;2023-01-30T07:50:03;94693.75;;;-0.50;100.00
12077;BME280;12420;42.676;23.262;2023-01-30T07:52:32;94721.25;;;-0.20;100.00
12077;BME280;12420;42.676;23.262;2023-01-30T07:55:07;94732.84;;;0.17;100.00
12077;BME280;12420;42.676;23.262;2023-01-30T07:57:35;94728.00;;;0.31;100.00
12077;BME280;12420;42.676;23.262;2023-01-30T08:00:04;94725.72;;;0.38;100.00
12077;BME280;12420;42.676;23.262;2023-01-30T08:02:31;94702.97;;;0.51;100.00
12077;BME280;12420;42.676;23.262;2023-01-30T08:04:58;94701.88;;;0.67;100.00
12077;BME280;12420;42.676;23.262;2023-01-30T08:07:24;94707.56;;;0.78;100.00
12077;BME280;12420;42.676;23.262;2023-01-30T08:09:51;94701.63;;;0.89;100.00
12077;BME280;12420;42.676;23.262;2023-01-30T08:12:20;94689.97;;;0.88;100.00
12077;BME280;12420;42.676;23.262;2023-01-30T08:14:46;94700.59;;;1.10;100.00
12077;BME280;12420;42.676;23.262;2023-01-30T08:17:13;94688.19;;;1.09;100.00
12077;BME280;12420;42.676;23.262;2023-01-30T08:19:40;94683.66;;;1.06;100.00
12077;BME280;12420;42.676;23.262;2023-01-30T08:22:07;94707.75;;;1.32;100.00
12077;BME280;12420;42.676;23.262;2023-01-30T08:24:34;94691.50;;;1.37;100.00
12077;BME280;12420;42.676;23.262;2023-01-30T08:27:00;94692.47;;;1.49;100.00
12077;BME280;12420;42.676;23.262;2023-01-30T08:29:29;94700.13;;;1.60;100.00
12077;BME280;12420;42.676;23.262;2023-01-30T08:31:56;94698.28;;;1.42;100.00
12077;BME280;12420;42.676;23.262;2023-01-30T08:34:23;94692.78;;;1.51;100.00
12077;BME280;12420;42.676;23.262;2023-01-30T08:36:50;94599.59;;;0.90;100.00
12077;BME280;12420;42.676;23.262;2023-01-30T08:39:16;94666.91;;;1.22;100.00
12077;BME280;12420;42.676;23.262;2023-01-30T08:41:43;94691.38;;;1.56;100.00
12077;BME280;12420;42.676;23.262;2023-01-30T08:44:10;94691.19;;;1.59;100.00
12077;BME280;12420;42.676;23.262;2023-01-30T08:46:39;94671.88;;;1.48;100.00
12077;BME280;12420;42.676;23.262;2023-01-30T08:49:06;94638.88;;;1.22;100.00
12077;BME280;12420;42.676;23.262;2023-01-30T08:51:32;94520.94;;;0.58;100.00
12077;BME280;12420;42.676;23.262;2023-01-30T08:53:59;94680.47;;;1.70;100.00
12077;BME280;12420;42.676;23.262;2023-01-30T08:56:26;94673.22;;;1.28;100.00
12077;BME280;12420;42.676;23.262;2023-01-30T08:58:52;94657.63;;;1.05;100.00
12077;BME280;12420;42.676;23.262;2023-01-30T09:01:19;94668.81;;;0.83;100.00
12077;BME280;12420;42.676;23.262;2023-01-30T09:03:47;94665.22;;;1.01;100.00
12077;BME280;12420;42.676;23.262;2023-01-30T09:06:14;94661.28;;;1.02;100.00
12077;BME280;12420;42.676;23.262;2023-01-30T09:08:43;94662.25;;;0.90;100.00
12077;BME280;12420;42.676;23.262;2023-01-30T09:11:10;94656.19;;;0.95;100.00
12077;BME280;12420;42.676;23.262;2023-01-30T09:13:37;94662.78;;;1.03;100.00
12077;BME280;12420;42.676;23.262;2023-01-30T09:16:07;94659.28;;;0.78;100.00
12077;BME280;12420;42.676;23.262;2023-01-30T09:18:37;94663.59;;;0.61;100.00
12077;BME280;12420;42.676;23.262;2023-01-30T09:21:08;94661.78;;;0.58;100.00
12077;BME280;12420;42.676;23.262;2023-01-30T09:23:35;94647.25;;;0.61;100.00
12077;BME280;12420;42.676;23.262;2023-01-30T09:26:02;94655.50;;;0.42;100.00
12077;BME280;12420;42.676;23.262;2023-01-30T09:28:29;94632.81;;;0.03;100.00
12077;BME280;12420;42.676;23.262;2023-01-30T09:30:56;94608.66;;;-0.13;100.00
12077;BME280;12420;42.676;23.262;2023-01-30T09:33:23;94631.16;;;-0.04;100.00
12077;BME280;12420;42.676;23.262;2023-01-30T09:35:50;94645.00;;;0.17;100.00
12077;BME280;12420;42.676;23.262;2023-01-30T09:38:19;94652.91;;;-0.04;100.00
12077;BME280;12420;42.676;23.262;2023-01-30T09:40:55;94656.88;;;-0.14;100.00
12077;BME280;12420;42.676;23.262;2023-01-30T09:43:56;94644.38;;;0.31;100.00
12077;BME280;12420;42.676;23.262;2023-01-30T09:46:33;94635.78;;;0.24;100.00
12077;BME280;12420;42.676;23.262;2023-01-30T09:49:12;94634.75;;;0.12;100.00
12077;BME280;12420;42.676;23.262;2023-01-30T09:51:49;94626.44;;;0.49;100.00
12077;BME280;12420;42.676;23.262;2023-01-30T09:54:22;94624.84;;;0.33;100.00
12077;BME280;12420;42.676;23.262;2023-01-30T09:56:55;94625.59;;;0.33;100.00
12077;BME280;12420;42.676;23.262;2023-01-30T09:59:29;94598.66;;;0.35;100.00
12077;BME280;12420;42.676;23.262;2023-01-30T10:02:21;94625.34;;;0.22;100.00
12077;BME280;12420;42.676;23.262;2023-01-30T10:04:50;94595.44;;;0.13;100.00
12077;BME280;12420;42.676;23.262;2023-01-30T10:07:24;94515.81;;;-0.49;100.00
12077;BME280;12420;42.676;23.262;2023-01-30T10:09:58;94604.38;;;0.04;100.00
12077;BME280;12420;42.676;23.262;2023-01-30T10:12:38;94598.19;;;0.04;100.00
12077;BME280;12420;42.676;23.262;2023-01-30T10:15:27;94602.78;;;-0.21;100.00
12077;BME280;12420;42.676;23.262;2023-01-30T10:18:20;94529.75;;;-0.74;100.00
12077;BME280;12420;42.676;23.262;2023-01-30T10:20:55;94571.31;;;-0.74;100.00
12077;BME280;12420;42.676;23.262;2023-01-30T10:23:35;94578.34;;;-0.39;100.00
12077;BME280;12420;42.676;23.262;2023-01-30T10:26:12;94540.66;;;-0.83;100.00
12077;BME280;12420;42.676;23.262;2023-01-30T10:28:43;94575.94;;;-0.37;100.00
12077;BME280;12420;42.676;23.262;2023-01-30T10:31:14;94568.69;;;-0.40;100.00
12077;BME280;12420;42.676;23.262;2023-01-30T10:33:45;94588.47;;;-0.40;100.00
12077;BME280;12420;42.676;23.262;2023-01-30T10:36:22;94556.41;;;-0.27;100.00
12077;BME280;12420;42.676;23.262;2023-01-30T10:38:51;94514.81;;;-0.60;100.00
12077;BME280;12420;42.676;23.262;2023-01-30T10:41:24;94546.94;;;-0.50;100.00
12077;BME280;12420;42.676;23.262;2023-01-30T10:43:57;94539.56;;;-0.58;100.00
12077;BME280;12420;42.676;23.262;2023-01-30T10:46:34;94530.19;;;-0.57;100.00
12077;BME280;12420;42.676;23.262;2023-01-30T10:49:05;94530.63;;;-0.50;100.00
12077;BME280;12420;42.676;23.262;2023-01-30T10:51:50;94521.44;;;-0.52;100.00
12077;BME280;12420;42.676;23.262;2023-01-30T10:54:25;94513.13;;;-0.58;100.00
12077;BME280;12420;42.676;23.262;2023-01-30T10:57:00;94515.53;;;-0.51;100.00
12077;BME280;12420;42.676;23.262;2023-01-30T10:59:40;94510.53;;;-0.43;100.00
12077;BME280;12420;42.676;23.262;2023-01-30T11:02:22;94489.84;;;-0.40;100.00
12077;BME280;12420;42.676;23.262;2023-01-30T11:04:57;94467.94;;;-0.46;100.00
12077;BME280;12420;42.676;23.262;2023-01-30T11:07:26;94513.69;;;-0.35;100.00
12077;BME280;12420;42.676;23.262;2023-01-30T11:09:56;94485.25;;;-0.25;100.00
12077;BME280;12420;42.676;23.262;2023-01-30T11:12:25;94484.09;;;-0.42;100.00
12077;BME280;12420;42.676;23.262;2023-01-30T11:14:55;94474.84;;;-0.36;100.00
12077;BME280;12420;42.676;23.262;2023-01-30T11:17:29;94422.47;;;-0.88;100.00
12077;BME280;12420;42.676;23.262;2023-01-30T11:20:03;94466.41;;;-0.38;100.00
12077;BME280;12420;42.676;23.262;2023-01-30T11:22:33;94458.06;;;-0.25;100.00
12077;BME280;12420;42.676;23.262;2023-01-30T11:25:04;94422.31;;;-0.42;100.00
12077;BME280;12420;42.676;23.262;2023-01-30T11:27:33;94438.19;;;-0.50;100.00
12077;BME280;12420;42.676;23.262;2023-01-30T11:30:09;94440.88;;;-0.07;100.00
12077;BME280;12420;42.676;23.262;2023-01-30T11:32:38;94386.25;;;-0.52;100.00
12077;BME280;12420;42.676;23.262;2023-01-30T11:35:21;94434.25;;;-0.15;100.00
12077;BME280;12420;42.676;23.262;2023-01-30T11:37:49;94403.81;;;-0.29;100.00
12077;BME280;12420;42.676;23.262;2023-01-30T11:40:27;94409.56;;;-0.03;100.00
12077;BME280;12420;42.676;23.262;2023-01-30T11:43:10;94422.78;;;0.14;100.00
12077;BME280;12420;42.676;23.262;2023-01-30T11:45:41;94421.03;;;0.02;100.00
12077;BME280;12420;42.676;23.262;2023-01-30T11:48:14;94409.66;;;0.27;100.00
12077;BME280;12420;42.676;23.262;2023-01-30T11:50:44;94405.69;;;0.13;100.00
12077;BME280;12420;42.676;23.262;2023-01-30T11:53:22;94412.53;;;0.09;100.00
12077;BME280;12420;42.676;23.262;2023-01-30T11:55:54;94400.31;;;0.04;100.00
12077;BME280;12420;42.676;23.262;2023-01-30T11:58:22;94391.91;;;0.17;100.00
12077;BME280;12420;42.676;23.262;2023-01-30T12:00:50;94358.34;;;-0.04;100.00
12077;BME280;12420;42.676;23.262;2023-01-30T12:03:18;94337.50;;;-0.07;100.00
12077;BME280;12420;42.676;23.262;2023-01-30T12:05:51;94324.94;;;-0.05;100.00
12077;BME280;12420;42.676;23.262;2023-01-30T12:08:25;94383.03;;;0.31;100.00
12077;BME280;12420;42.676;23.262;2023-01-30T12:10:55;94345.09;;;0.28;100.00
12077;BME280;12420;42.676;23.262;2023-01-30T12:13:30;94361.38;;;0.52;100.00
12077;BME280;12420;42.676;23.262;2023-01-30T12:16:16;94367.56;;;0.52;100.00
12077;BME280;12420;42.676;23.262;2023-01-30T12:18:52;94364.09;;;0.52;100.00
12077;BME280;12420;42.676;23.262;2023-01-30T12:21:30;94356.22;;;0.54;100.00
12077;BME280;12420;42.676;23.262;2023-01-30T12:24:07;94332.44;;;0.39;100.00
12077;BME280;12420;42.676;23.262;2023-01-30T12:26:43;94359.88;;;0.65;100.00
12077;BME280;12420;42.676;23.262;2023-01-30T12:29:22;94353.03;;;0.70;100.00
12077;BME280;12420;42.676;23.262;2023-01-30T12:31:56;94345.53;;;1.10;100.00
12077;BME280;12420;42.676;23.262;2023-01-30T12:34:27;94341.31;;;1.44;100.00
12077;BME280;12420;42.676;23.262;2023-01-30T12:37:02;94346.09;;;1.49;100.00
12077;BME280;12420;42.676;23.262;2023-01-30T12:39:41;94338.16;;;1.30;100.00
12077;BME280;12420;42.676;23.262;2023-01-30T12:42:45;94315.72;;;1.06;100.00
12077;BME280;12420;42.676;23.262;2023-01-30T12:45:31;94347.72;;;1.41;100.00
12077;BME280;12420;42.676;23.262;2023-01-30T12:51:14;94323.72;;;1.45;100.00
12077;BME280;12420;42.676;23.262;2023-01-30T12:53:54;94310.19;;;1.15;100.00
12077;BME280;12420;42.676;23.262;2023-01-30T12:56:37;94322.03;;;1.12;100.00
12077;BME280;12420;42.676;23.262;2023-01-30T12:59:13;94293.41;;;0.72;100.00
12077;BME280;12420;42.676;23.262;2023-01-30T13:01:56;94318.66;;;1.02;100.00
12077;BME280;12420;42.676;23.262;2023-01-30T13:04:35;94221.03;;;0.36;100.00